sensor_id;sensor_type;location;lat;lon;timestamp;P1;durP1;ratioP1;P2;durP2;ratioP2
74636;SDS011;63141;54.616;39.754;2023-04-01T00:00:10;1.50;;;1.10;;
74636;SDS011;63141;54.616;39.754;2023-04-01T00:03:15;3.55;;;1.15;;
74636;SDS011;63141;54.616;39.754;2023-04-01T00:06:27;2.20;;;1.10;;
74636;SDS011;63141;54.616;39.754;2023-04-01T00:09:29;1.92;;;1.15;;
74636;SDS011;63141;54.616;39.754;2023-04-01T00:12:36;1.10;;;0.90;;
74636;SDS011;63141;54.616;39.754;2023-04-01T00:15:38;2.38;;;1.23;;
74636;SDS011;63141;54.616;39.754;2023-04-01T00:18:43;1.75;;;1.05;;
74636;SDS011;63141;54.616;39.754;2023-04-01T00:21:51;1.45;;;0.90;;
74636;SDS011;63141;54.616;39.754;2023-04-01T00:24:53;2.03;;;1.27;;
74636;SDS011;63141;54.616;39.754;2023-04-01T00:28:03;2.53;;;1.13;;
74636;SDS011;63141;54.616;39.754;2023-04-01T00:31:06;2.90;;;1.40;;
74636;SDS011;63141;54.616;39.754;2023-04-01T00:34:11;1.60;;;1.00;;
74636;SDS011;63141;54.616;39.754;2023-04-01T00:37:26;1.20;;;0.85;;
74636;SDS011;63141;54.616;39.754;2023-04-01T00:40:30;1.10;;;0.90;;
74636;SDS011;63141;54.616;39.754;2023-04-01T00:43:33;1.17;;;0.95;;
74636;SDS011;63141;54.616;39.754;2023-04-01T00:46:41;1.67;;;1.00;;
74636;SDS011;63141;54.616;39.754;2023-04-01T00:49:49;1.45;;;1.00;;
74636;SDS011;63141;54.616;39.754;2023-04-01T00:52:58;1.05;;;0.90;;
74636;SDS011;63141;54.616;39.754;2023-04-01T00:56:07;0.98;;;0.80;;
74636;SDS011;63141;54.616;39.754;2023-04-01T00:59:27;1.85;;;1.00;;
74636;SDS011;63141;54.616;39.754;2023-04-01T01:02:32;2.25;;;0.80;;
74636;SDS011;63141;54.616;39.754;2023-04-01T01:09:03;1.13;;;0.90;;
74636;SDS011;63141;54.616;39.754;2023-04-01T01:16:11;0.90;;;0.75;;
74636;SDS011;63141;54.616;39.754;2023-04-01T01:22:52;1.60;;;1.10;;
74636;SDS011;63141;54.616;39.754;2023-04-01T01:30:05;1.00;;;0.90;;
74636;SDS011;63141;54.616;39.754;2023-04-01T01:33:45;0.70;;;0.70;;
74636;SDS011;63141;54.616;39.754;2023-04-01T01:36:58;0.63;;;0.63;;
74636;SDS011;63141;54.616;39.754;2023-04-01T01:40:04;1.02;;;0.73;;
74636;SDS011;63141;54.616;39.754;2023-04-01T01:43:10;0.73;;;0.73;;
74636;SDS011;63141;54.616;39.754;2023-04-01T01:46:16;1.13;;;0.80;;
74636;SDS011;63141;54.616;39.754;2023-04-01T01:49:24;1.95;;;0.90;;
74636;SDS011;63141;54.616;39.754;2023-04-01T01:52:34;1.20;;;0.73;;
74636;SDS011;63141;54.616;39.754;2023-04-01T01:55:37;0.80;;;0.80;;
74636;SDS011;63141;54.616;39.754;2023-04-01T01:58:42;0.90;;;0.77;;
74636;SDS011;63141;54.616;39.754;2023-04-01T02:01:54;1.05;;;0.80;;
74636;SDS011;63141;54.616;39.754;2023-04-01T02:05:05;1.10;;;0.80;;
74636;SDS011;63141;54.616;39.754;2023-04-01T02:08:16;1.00;;;0.70;;
74636;SDS011;63141;54.616;39.754;2023-04-01T02:11:24;0.93;;;0.80;;
74636;SDS011;63141;54.616;39.754;2023-04-01T02:17:49;1.13;;;0.90;;
74636;SDS011;63141;54.616;39.754;2023-04-01T02:20:54;0.85;;;0.70;;
74636;SDS011;63141;54.616;39.754;2023-04-01T02:24:01;0.85;;;0.80;;
74636;SDS011;63141;54.616;39.754;2023-04-01T02:27:08;2.15;;;0.70;;
74636;SDS011;63141;54.616;39.754;2023-04-01T02:30:12;1.70;;;0.80;;
74636;SDS011;63141;54.616;39.754;2023-04-01T02:33:16;0.82;;;0.73;;
74636;SDS011;63141;54.616;39.754;2023-04-01T02:36:24;1.08;;;0.85;;
74636;SDS011;63141;54.616;39.754;2023-04-01T02:39:29;0.80;;;0.80;;
74636;SDS011;63141;54.616;39.754;2023-04-01T02:42:33;1.60;;;0.95;;
74636;SDS011;63141;54.616;39.754;2023-04-01T02:45:35;0.90;;;0.70;;
74636;SDS011;63141;54.616;39.754;2023-04-01T02:48:37;0.93;;;0.73;;
74636;SDS011;63141;54.616;39.754;2023-04-01T02:51:38;1.00;;;0.70;;
74636;SDS011;63141;54.616;39.754;2023-04-01T02:54:42;0.90;;;0.73;;
74636;SDS011;63141;54.616;39.754;2023-04-01T02:57:43;0.80;;;0.80;;
74636;SDS011;63141;54.616;39.754;2023-04-01T03:00:50;1.40;;;0.70;;
74636;SDS011;63141;54.616;39.754;2023-04-01T03:03:52;0.70;;;0.65;;
74636;SDS011;63141;54.616;39.754;2023-04-01T03:06:58;0.93;;;0.68;;
74636;SDS011;63141;54.616;39.754;2023-04-01T03:10:00;1.23;;;0.80;;
74636;SDS011;63141;54.616;39.754;2023-04-01T03:13:04;1.20;;;0.70;;
74636;SDS011;63141;54.616;39.754;2023-04-01T03:16:06;0.70;;;0.70;;
74636;SDS011;63141;54.616;39.754;2023-04-01T03:19:07;0.93;;;0.52;;
74636;SDS011;63141;54.616;39.754;2023-04-01T03:22:10;1.20;;;0.90;;
74636;SDS011;63141;54.616;39.754;2023-04-01T03:25:12;1.15;;;0.75;;
74636;SDS011;63141;54.616;39.754;2023-04-01T03:28:14;1.00;;;0.90;;
74636;SDS011;63141;54.616;39.754;2023-04-01T03:31:18;1.23;;;1.00;;
74636;SDS011;63141;54.616;39.754;2023-04-01T03:34:26;1.10;;;0.90;;
74636;SDS011;63141;54.616;39.754;2023-04-01T03:37:32;0.77;;;0.77;;
74636;SDS011;63141;54.616;39.754;2023-04-01T03:40:34;1.70;;;0.88;;
74636;SDS011;63141;54.616;39.754;2023-04-01T03:43:38;1.52;;;0.90;;
74636;SDS011;63141;54.616;39.754;2023-04-01T03:46:42;1.00;;;0.80;;
74636;SDS011;63141;54.616;39.754;2023-04-01T03:49:46;1.27;;;0.80;;
74636;SDS011;63141;54.616;39.754;2023-04-01T03:52:47;1.17;;;0.80;;
74636;SDS011;63141;54.616;39.754;2023-04-01T03:55:55;1.83;;;0.93;;
74636;SDS011;63141;54.616;39.754;2023-04-01T03:59:03;0.90;;;0.80;;
74636;SDS011;63141;54.616;39.754;2023-04-01T04:02:10;0.90;;;0.77;;
74636;SDS011;63141;54.616;39.754;2023-04-01T04:05:12;1.05;;;0.90;;
74636;SDS011;63141;54.616;39.754;2023-04-01T04:08:19;2.05;;;1.00;;
74636;SDS011;63141;54.616;39.754;2023-04-01T04:11:22;1.23;;;0.80;;
74636;SDS011;63141;54.616;39.754;2023-04-01T04:14:26;1.30;;;0.70;;
74636;SDS011;63141;54.616;39.754;2023-04-01T04:17:30;1.20;;;0.88;;
74636;SDS011;63141;54.616;39.754;2023-04-01T04:20:43;1.00;;;0.85;;
74636;SDS011;63141;54.616;39.754;2023-04-01T04:23:52;2.65;;;0.93;;
74636;SDS011;63141;54.616;39.754;2023-04-01T04:26:55;1.20;;;0.90;;
74636;SDS011;63141;54.616;39.754;2023-04-01T04:29:56;1.10;;;0.90;;
74636;SDS011;63141;54.616;39.754;2023-04-01T04:32:58;1.55;;;0.90;;
74636;SDS011;63141;54.616;39.754;2023-04-01T04:36:00;1.10;;;0.90;;
74636;SDS011;63141;54.616;39.754;2023-04-01T04:39:04;1.00;;;0.80;;
74636;SDS011;63141;54.616;39.754;2023-04-01T04:42:08;2.55;;;0.88;;
74636;SDS011;63141;54.616;39.754;2023-04-01T04:45:09;1.50;;;0.88;;
74636;SDS011;63141;54.616;39.754;2023-04-01T04:48:24;1.02;;;0.70;;
74636;SDS011;63141;54.616;39.754;2023-04-01T04:51:28;1.02;;;0.93;;
74636;SDS011;63141;54.616;39.754;2023-04-01T04:54:29;1.95;;;0.88;;
74636;SDS011;63141;54.616;39.754;2023-04-01T04:57:38;0.98;;;0.82;;
74636;SDS011;63141;54.616;39.754;2023-04-01T05:00:54;1.58;;;1.08;;
74636;SDS011;63141;54.616;39.754;2023-04-01T05:04:08;1.20;;;1.08;;
74636;SDS011;63141;54.616;39.754;2023-04-01T05:07:15;1.40;;;1.00;;
74636;SDS011;63141;54.616;39.754;2023-04-01T05:10:19;2.03;;;0.88;;
74636;SDS011;63141;54.616;39.754;2023-04-01T05:13:32;1.50;;;1.00;;
74636;SDS011;63141;54.616;39.754;2023-04-01T05:16:46;1.30;;;0.85;;
74636;SDS011;63141;54.616;39.754;2023-04-01T05:19:52;1.90;;;1.02;;
74636;SDS011;63141;54.616;39.754;2023-04-01T05:22:57;1.40;;;1.00;;
74636;SDS011;63141;54.616;39.754;2023-04-01T05:26:04;1.38;;;1.23;;
74636;SDS011;63141;54.616;39.754;2023-04-01T05:29:10;1.40;;;1.27;;
74636;SDS011;63141;54.616;39.754;2023-04-01T05:32:24;2.05;;;1.10;;
74636;SDS011;63141;54.616;39.754;2023-04-01T05:35:31;1.50;;;0.90;;
74636;SDS011;63141;54.616;39.754;2023-04-01T05:38:42;2.53;;;1.20;;
74636;SDS011;63141;54.616;39.754;2023-04-01T05:41:53;1.70;;;1.17;;
74636;SDS011;63141;54.616;39.754;2023-04-01T05:45:00;1.33;;;1.02;;
74636;SDS011;63141;54.616;39.754;2023-04-01T05:48:29;3.45;;;1.38;;
74636;SDS011;63141;54.616;39.754;2023-04-01T05:51:33;1.42;;;1.13;;
74636;SDS011;63141;54.616;39.754;2023-04-01T05:54:38;1.13;;;1.00;;
74636;SDS011;63141;54.616;39.754;2023-04-01T05:57:39;3.35;;;1.10;;
74636;SDS011;63141;54.616;39.754;2023-04-01T06:00:46;1.25;;;1.10;;
74636;SDS011;63141;54.616;39.754;2023-04-01T06:03:50;1.27;;;1.10;;
74636;SDS011;63141;54.616;39.754;2023-04-01T06:07:00;2.28;;;1.20;;
74636;SDS011;63141;54.616;39.754;2023-04-01T06:10:18;1.60;;;1.13;;
74636;SDS011;63141;54.616;39.754;2023-04-01T06:24:02;4.18;;;3.28;;
74636;SDS011;63141;54.616;39.754;2023-04-01T06:30:43;4.22;;;3.20;;
74636;SDS011;63141;54.616;39.754;2023-04-01T06:48:11;3.20;;;2.67;;
74636;SDS011;63141;54.616;39.754;2023-04-01T06:58:49;5.18;;;3.10;;
74636;SDS011;63141;54.616;39.754;2023-04-01T07:02:11;4.25;;;2.92;;
74636;SDS011;63141;54.616;39.754;2023-04-01T07:05:26;3.80;;;2.88;;
74636;SDS011;63141;54.616;39.754;2023-04-01T07:08:43;2.72;;;2.22;;
74636;SDS011;63141;54.616;39.754;2023-04-01T07:12:02;4.00;;;3.08;;
74636;SDS011;63141;54.616;39.754;2023-04-01T07:15:50;3.88;;;3.10;;
74636;SDS011;63141;54.616;39.754;2023-04-01T07:19:27;3.65;;;2.85;;
74636;SDS011;63141;54.616;39.754;2023-04-01T07:22:49;3.97;;;3.17;;
74636;SDS011;63141;54.616;39.754;2023-04-01T07:26:45;3.60;;;2.65;;
74636;SDS011;63141;54.616;39.754;2023-04-01T07:30:02;4.78;;;3.28;;
74636;SDS011;63141;54.616;39.754;2023-04-01T07:33:24;4.03;;;3.08;;
74636;SDS011;63141;54.616;39.754;2023-04-01T07:40:17;3.90;;;2.60;;
74636;SDS011;63141;54.616;39.754;2023-04-01T07:47:10;3.92;;;3.03;;
74636;SDS011;63141;54.616;39.754;2023-04-01T07:50:31;6.30;;;2.85;;
74636;SDS011;63141;54.616;39.754;2023-04-01T07:54:16;4.15;;;2.97;;
74636;SDS011;63141;54.616;39.754;2023-04-01T08:01:02;3.42;;;2.90;;
74636;SDS011;63141;54.616;39.754;2023-04-01T08:04:28;3.43;;;3.00;;
74636;SDS011;63141;54.616;39.754;2023-04-01T08:11:43;5.72;;;3.20;;
74636;SDS011;63141;54.616;39.754;2023-04-01T08:22:57;6.03;;;2.50;;
74636;SDS011;63141;54.616;39.754;2023-04-01T08:29:55;1.55;;;1.30;;
74636;SDS011;63141;54.616;39.754;2023-04-01T08:33:31;1.92;;;1.40;;
74636;SDS011;63141;54.616;39.754;2023-04-01T08:36:51;3.67;;;1.30;;
74636;SDS011;63141;54.616;39.754;2023-04-01T08:43:51;122.38;;;50.10;;
74636;SDS011;63141;54.616;39.754;2023-04-01T09:12:59;176.10;;;72.13;;
74636;SDS011;63141;54.616;39.754;2023-04-01T09:23:43;162.18;;;64.75;;
74636;SDS011;63141;54.616;39.754;2023-04-01T09:27:13;161.95;;;64.40;;
74636;SDS011;63141;54.616;39.754;2023-04-01T09:30:39;145.85;;;60.25;;
74636;SDS011;63141;54.616;39.754;2023-04-01T09:34:21;135.52;;;60.50;;
74636;SDS011;63141;54.616;39.754;2023-04-01T09:38:11;138.02;;;55.50;;
74636;SDS011;63141;54.616;39.754;2023-04-01T09:41:32;131.65;;;53.50;;
74636;SDS011;63141;54.616;39.754;2023-04-01T09:44:58;121.65;;;52.08;;
74636;SDS011;63141;54.616;39.754;2023-04-01T10:18:17;274.00;;;70.93;;
74636;SDS011;63141;54.616;39.754;2023-04-01T10:32:46;157.52;;;48.25;;
74636;SDS011;63141;54.616;39.754;2023-04-01T11:23:32;64.40;;;25.75;;
74636;SDS011;63141;54.616;39.754;2023-04-01T11:31:00;63.92;;;25.90;;
74636;SDS011;63141;54.616;39.754;2023-04-01T11:34:39;63.17;;;23.90;;
74636;SDS011;63141;54.616;39.754;2023-04-01T11:38:05;55.25;;;24.10;;
74636;SDS011;63141;54.616;39.754;2023-04-01T11:46:02;56.63;;;20.98;;
74636;SDS011;63141;54.616;39.754;2023-04-01T11:53:12;51.03;;;21.00;;
74636;SDS011;63141;54.616;39.754;2023-04-01T12:10:58;44.28;;;18.15;;
74636;SDS011;63141;54.616;39.754;2023-04-01T12:38:31;31.70;;;13.60;;
74636;SDS011;63141;54.616;39.754;2023-04-01T12:42:11;27.40;;;13.45;;
74636;SDS011;63141;54.616;39.754;2023-04-01T12:56:39;29.08;;;12.50;;
74636;SDS011;63141;54.616;39.754;2023-04-01T13:18:38;25.48;;;10.60;;
74636;SDS011;63141;54.616;39.754;2023-04-01T13:25:36;20.27;;;9.60;;
74636;SDS011;63141;54.616;39.754;2023-04-01T13:42:59;21.40;;;9.30;;
74636;SDS011;63141;54.616;39.754;2023-04-01T14:03:26;15.73;;;8.18;;
74636;SDS011;63141;54.616;39.754;2023-04-01T14:21:20;16.27;;;7.28;;
74636;SDS011;63141;54.616;39.754;2023-04-01T14:24:46;15.70;;;7.35;;
74636;SDS011;63141;54.616;39.754;2023-04-01T14:49:13;14.10;;;5.75;;
74636;SDS011;63141;54.616;39.754;2023-04-01T14:55:57;12.73;;;6.45;;
74636;SDS011;63141;54.616;39.754;2023-04-01T14:59:10;12.07;;;5.95;;
74636;SDS011;63141;54.616;39.754;2023-04-01T15:16:39;8.88;;;5.03;;
74636;SDS011;63141;54.616;39.754;2023-04-01T15:23:49;11.50;;;5.90;;
74636;SDS011;63141;54.616;39.754;2023-04-01T15:27:19;9.35;;;5.03;;
74636;SDS011;63141;54.616;39.754;2023-04-01T15:30:44;8.88;;;4.70;;
74636;SDS011;63141;54.616;39.754;2023-04-01T15:37:54;9.05;;;4.55;;
74636;SDS011;63141;54.616;39.754;2023-04-01T15:41:35;8.35;;;4.47;;
74636;SDS011;63141;54.616;39.754;2023-04-01T15:52:15;7.55;;;4.05;;
74636;SDS011;63141;54.616;39.754;2023-04-01T16:13:59;9.23;;;4.40;;
74636;SDS011;63141;54.616;39.754;2023-04-01T16:24:22;6.53;;;3.50;;
74636;SDS011;63141;54.616;39.754;2023-04-01T16:49:08;9.98;;;4.82;;
74636;SDS011;63141;54.616;39.754;2023-04-01T16:56:14;10.07;;;4.15;;
74636;SDS011;63141;54.616;39.754;2023-04-01T16:59:48;10.50;;;4.10;;
74636;SDS011;63141;54.616;39.754;2023-04-01T17:03:31;7.85;;;3.67;;
74636;SDS011;63141;54.616;39.754;2023-04-01T17:10:56;5.25;;;3.40;;
74636;SDS011;63141;54.616;39.754;2023-04-01T17:21:10;8.25;;;3.80;;
74636;SDS011;63141;54.616;39.754;2023-04-01T17:42:05;5.68;;;3.15;;
74636;SDS011;63141;54.616;39.754;2023-04-01T18:07:43;7.88;;;3.90;;
74636;SDS011;63141;54.616;39.754;2023-04-01T18:26:05;5.60;;;3.22;;
74636;SDS011;63141;54.616;39.754;2023-04-01T18:29:39;8.13;;;3.90;;
74636;SDS011;63141;54.616;39.754;2023-04-01T18:36:56;5.50;;;3.30;;
74636;SDS011;63141;54.616;39.754;2023-04-01T18:40:34;6.47;;;3.70;;
74636;SDS011;63141;54.616;39.754;2023-04-01T18:50:56;8.75;;;3.35;;
74636;SDS011;63141;54.616;39.754;2023-04-01T18:58:12;5.30;;;2.97;;
74636;SDS011;63141;54.616;39.754;2023-04-01T19:05:38;8.13;;;3.47;;
74636;SDS011;63141;54.616;39.754;2023-04-01T19:16:42;6.45;;;3.55;;
74636;SDS011;63141;54.616;39.754;2023-04-01T19:38:05;4.80;;;2.97;;
74636;SDS011;63141;54.616;39.754;2023-04-01T19:52:41;5.93;;;3.28;;
74636;SDS011;63141;54.616;39.754;2023-04-01T19:56:05;5.88;;;3.22;;
74636;SDS011;63141;54.616;39.754;2023-04-01T19:59:38;5.45;;;3.05;;
74636;SDS011;63141;54.616;39.754;2023-04-01T20:03:30;7.22;;;3.17;;
74636;SDS011;63141;54.616;39.754;2023-04-01T20:14:27;7.05;;;3.47;;
74636;SDS011;63141;54.616;39.754;2023-04-01T20:20:56;9.80;;;3.53;;
74636;SDS011;63141;54.616;39.754;2023-04-01T20:24:33;6.43;;;3.42;;
74636;SDS011;63141;54.616;39.754;2023-04-01T20:31:26;5.22;;;2.70;;
74636;SDS011;63141;54.616;39.754;2023-04-01T20:52:23;4.85;;;2.53;;
74636;SDS011;63141;54.616;39.754;2023-04-01T21:03:29;6.38;;;2.78;;
74636;SDS011;63141;54.616;39.754;2023-04-01T21:06:48;5.28;;;2.65;;
74636;SDS011;63141;54.616;39.754;2023-04-01T21:31:23;3.80;;;2.08;;
74636;SDS011;63141;54.616;39.754;2023-04-01T21:34:42;4.22;;;2.40;;
74636;SDS011;63141;54.616;39.754;2023-04-01T22:09:59;5.90;;;2.55;;
74636;SDS011;63141;54.616;39.754;2023-04-01T22:13:16;7.57;;;3.08;;
74636;SDS011;63141;54.616;39.754;2023-04-01T22:26:17;7.82;;;2.13;;
74636;SDS011;63141;54.616;39.754;2023-04-01T22:29:56;5.60;;;2.40;;
74636;SDS011;63141;54.616;39.754;2023-04-01T22:33:32;4.45;;;2.20;;
74636;SDS011;63141;54.616;39.754;2023-04-01T22:36:57;6.85;;;2.42;;
74636;SDS011;63141;54.616;39.754;2023-04-01T22:43:43;6.32;;;2.53;;
74636;SDS011;63141;54.616;39.754;2023-04-01T23:03:29;4.97;;;2.38;;
74636;SDS011;63141;54.616;39.754;2023-04-01T23:06:39;4.88;;;2.45;;
74636;SDS011;63141;54.616;39.754;2023-04-01T23:09:53;4.28;;;2.35;;
74636;SDS011;63141;54.616;39.754;2023-04-01T23:12:58;6.18;;;2.45;;
74636;SDS011;63141;54.616;39.754;2023-04-01T23:16:08;3.28;;;2.08;;
74636;SDS011;63141;54.616;39.754;2023-04-01T23:29:51;3.35;;;2.15;;
74636;SDS011;63141;54.616;39.754;2023-04-01T23:32:53;4.45;;;2.20;;
74636;SDS011;63141;54.616;39.754;2023-04-01T23:39:29;5.68;;;2.30;;
74636;SDS011;63141;54.616;39.754;2023-04-01T23:42:32;4.95;;;2.15;;
74636;SDS011;63141;54.616;39.754;2023-04-01T23:45:48;3.88;;;2.33;;
74636;SDS011;63141;54.616;39.754;2023-04-01T23:48:53;7.28;;;2.20;;
74636;SDS011;63141;54.616;39.754;2023-04-01T23:52:10;7.88;;;2.42;;
74636;SDS011;63141;54.616;39.754;2023-04-01T23:55:27;4.57;;;2.20;;
74636;SDS011;63141;54.616;39.754;2023-04-01T23:58:45;3.80;;;2.25;;
